sensor_id;sensor_type;location;lat;lon;timestamp;pressure;altitude;pressure_sealevel;temperature;humidity
55460;BME280;41326;45.302;-122.946;2022-10-18T00:01:04;101225.86;;;19.02;58.85
55460;BME280;41326;45.302;-122.946;2022-10-18T00:03:35;101230.98;;;19.02;58.87
55460;BME280;41326;45.302;-122.946;2022-10-18T00:06:04;101234.73;;;19.03;58.88
55460;BME280;41326;45.302;-122.946;2022-10-18T00:08:34;101235.94;;;19.05;58.84
55460;BME280;41326;45.302;-122.946;2022-10-18T00:11:05;101231.05;;;19.09;58.67
55460;BME280;41326;45.302;-122.946;2022-10-18T00:13:36;101232.83;;;19.08;58.75
55460;BME280;41326;45.302;-122.946;2022-10-18T00:16:10;101231.79;;;19.14;58.58
55460;BME280;41326;45.302;-122.946;2022-10-18T00:18:36;101233.24;;;19.10;58.80
55460;BME280;41326;45.302;-122.946;2022-10-18T00:21:09;101229.26;;;19.09;58.95
55460;BME280;41326;45.302;-122.946;2022-10-18T00:23:37;101226.04;;;19.09;58.99
55460;BME280;41326;45.302;-122.946;2022-10-18T00:26:10;101227.00;;;19.12;58.93
55460;BME280;41326;45.302;-122.946;2022-10-18T00:28:39;101229.44;;;19.10;58.98
55460;BME280;41326;45.302;-122.946;2022-10-18T00:31:13;101231.49;;;19.14;58.83
55460;BME280;41326;45.302;-122.946;2022-10-18T00:33:38;101230.72;;;19.10;59.25
55460;BME280;41326;45.302;-122.946;2022-10-18T00:36:08;101231.32;;;19.03;59.63
55460;BME280;41326;45.302;-122.946;2022-10-18T00:38:38;101235.96;;;19.05;59.67
55460;BME280;41326;45.302;-122.946;2022-10-18T00:41:10;101237.93;;;19.05;59.79
55460;BME280;41326;45.302;-122.946;2022-10-18T00:46:09;101243.56;;;19.09;59.74
55460;BME280;41326;45.302;-122.946;2022-10-18T00:48:39;101245.09;;;19.11;59.76
55460;BME280;41326;45.302;-122.946;2022-10-18T00:51:09;101246.44;;;19.06;60.03
55460;BME280;41326;45.302;-122.946;2022-10-18T00:53:39;101246.28;;;19.09;60.07
55460;BME280;41326;45.302;-122.946;2022-10-18T00:56:10;101250.38;;;19.06;60.25
55460;BME280;41326;45.302;-122.946;2022-10-18T00:58:40;101252.89;;;19.10;60.19
55460;BME280;41326;45.302;-122.946;2022-10-18T01:01:10;101254.38;;;19.11;60.27
55460;BME280;41326;45.302;-122.946;2022-10-18T01:03:42;101251.89;;;19.12;60.48
55460;BME280;41326;45.302;-122.946;2022-10-18T01:06:12;101254.25;;;19.20;60.31
55460;BME280;41326;45.302;-122.946;2022-10-18T01:08:54;101256.05;;;19.20;60.28
55460;BME280;41326;45.302;-122.946;2022-10-18T01:11:22;101258.21;;;19.25;60.10
55460;BME280;41326;45.302;-122.946;2022-10-18T01:13:53;101261.27;;;19.16;60.56
55460;BME280;41326;45.302;-122.946;2022-10-18T01:16:19;101262.06;;;19.08;61.15
55460;BME280;41326;45.302;-122.946;2022-10-18T01:18:51;101259.26;;;19.02;61.61
55460;BME280;41326;45.302;-122.946;2022-10-18T01:21:23;101256.47;;;18.94;62.07
55460;BME280;41326;45.302;-122.946;2022-10-18T01:23:59;101255.82;;;18.88;62.46
55460;BME280;41326;45.302;-122.946;2022-10-18T01:26:25;101255.78;;;18.78;62.98
55460;BME280;41326;45.302;-122.946;2022-10-18T01:28:55;101259.53;;;18.82;62.97
55460;BME280;41326;45.302;-122.946;2022-10-18T01:31:17;101265.17;;;18.84;63.14
55460;BME280;41326;45.302;-122.946;2022-10-18T01:33:48;101263.60;;;18.95;62.65
55460;BME280;41326;45.302;-122.946;2022-10-18T01:36:22;101261.83;;;18.96;62.49
55460;BME280;41326;45.302;-122.946;2022-10-18T01:38:48;101262.65;;;19.03;62.16
55460;BME280;41326;45.302;-122.946;2022-10-18T01:41:19;101264.16;;;19.08;61.90
55460;BME280;41326;45.302;-122.946;2022-10-18T01:43:48;101270.52;;;19.07;61.94
55460;BME280;41326;45.302;-122.946;2022-10-18T01:46:20;101274.85;;;19.15;61.73
55460;BME280;41326;45.302;-122.946;2022-10-18T01:48:48;101277.65;;;19.22;61.47
55460;BME280;41326;45.302;-122.946;2022-10-18T01:51:18;101281.63;;;19.18;61.55
55460;BME280;41326;45.302;-122.946;2022-10-18T01:53:48;101284.65;;;19.17;61.56
55460;BME280;41326;45.302;-122.946;2022-10-18T01:56:26;101291.32;;;19.22;61.43
55460;BME280;41326;45.302;-122.946;2022-10-18T01:58:58;101293.44;;;19.23;61.41
55460;BME280;41326;45.302;-122.946;2022-10-18T02:01:27;101294.66;;;19.20;61.52
55460;BME280;41326;45.302;-122.946;2022-10-18T02:03:53;101298.96;;;19.13;61.96
55460;BME280;41326;45.302;-122.946;2022-10-18T02:06:26;101297.37;;;19.18;62.06
55460;BME280;41326;45.302;-122.946;2022-10-18T02:08:56;101294.33;;;19.22;62.27
55460;BME280;41326;45.302;-122.946;2022-10-18T02:11:22;101296.01;;;19.25;62.59
55460;BME280;41326;45.302;-122.946;2022-10-18T02:13:54;101299.10;;;19.26;62.96
55460;BME280;41326;45.302;-122.946;2022-10-18T02:16:25;101296.39;;;19.28;63.17
55460;BME280;41326;45.302;-122.946;2022-10-18T02:18:55;101298.27;;;19.34;63.40
55460;BME280;41326;45.302;-122.946;2022-10-18T02:21:23;101297.63;;;19.54;62.63
55460;BME280;41326;45.302;-122.946;2022-10-18T02:23:53;101301.00;;;19.55;63.41
55460;BME280;41326;45.302;-122.946;2022-10-18T02:26:23;101301.70;;;19.54;63.68
55460;BME280;41326;45.302;-122.946;2022-10-18T02:28:53;101303.67;;;19.63;63.36
55460;BME280;41326;45.302;-122.946;2022-10-18T02:31:26;101301.29;;;19.68;63.13
55460;BME280;41326;45.302;-122.946;2022-10-18T02:33:59;101300.79;;;19.63;63.39
55460;BME280;41326;45.302;-122.946;2022-10-18T02:36:28;101301.02;;;19.67;63.23
55460;BME280;41326;45.302;-122.946;2022-10-18T02:38:58;101301.16;;;19.76;62.90
55460;BME280;41326;45.302;-122.946;2022-10-18T02:41:29;101302.81;;;19.71;63.33
55460;BME280;41326;45.302;-122.946;2022-10-18T02:43:55;101303.27;;;19.73;63.65
55460;BME280;41326;45.302;-122.946;2022-10-18T02:46:26;101303.87;;;19.71;64.03
55460;BME280;41326;45.302;-122.946;2022-10-18T02:48:56;101303.11;;;19.70;64.34
55460;BME280;41326;45.302;-122.946;2022-10-18T02:51:28;101307.71;;;19.72;64.41
55460;BME280;41326;45.302;-122.946;2022-10-18T02:53:57;101315.80;;;19.69;64.50
55460;BME280;41326;45.302;-122.946;2022-10-18T02:56:28;101320.71;;;19.65;64.45
55460;BME280;41326;45.302;-122.946;2022-10-18T02:58:58;101324.87;;;19.64;64.41
55460;BME280;41326;45.302;-122.946;2022-10-18T03:02:35;101320.20;;;19.70;63.82
55460;BME280;41326;45.302;-122.946;2022-10-18T03:05:06;101320.92;;;19.70;63.73
55460;BME280;41326;45.302;-122.946;2022-10-18T03:07:36;101323.04;;;19.75;63.38
55460;BME280;41326;45.302;-122.946;2022-10-18T03:10:07;101327.47;;;19.78;63.10
55460;BME280;41326;45.302;-122.946;2022-10-18T03:12:37;101335.70;;;19.73;63.24
55460;BME280;41326;45.302;-122.946;2022-10-18T03:15:07;101340.50;;;19.72;63.22
55460;BME280;41326;45.302;-122.946;2022-10-18T03:17:38;101346.02;;;19.71;63.14
55460;BME280;41326;45.302;-122.946;2022-10-18T03:20:08;101345.76;;;19.73;62.95
55460;BME280;41326;45.302;-122.946;2022-10-18T03:22:47;101349.19;;;19.74;62.89
55460;BME280;41326;45.302;-122.946;2022-10-18T03:25:18;101353.27;;;19.74;62.81
55460;BME280;41326;45.302;-122.946;2022-10-18T03:27:48;101353.60;;;19.73;62.77
55460;BME280;41326;45.302;-122.946;2022-10-18T03:30:19;101360.10;;;19.77;62.53
55460;BME280;41326;45.302;-122.946;2022-10-18T03:32:49;101359.48;;;19.72;62.69
55460;BME280;41326;45.302;-122.946;2022-10-18T03:35:19;101356.57;;;19.70;62.74
55460;BME280;41326;45.302;-122.946;2022-10-18T03:37:49;101356.90;;;19.70;62.73
55460;BME280;41326;45.302;-122.946;2022-10-18T03:40:20;101357.99;;;19.69;62.78
55460;BME280;41326;45.302;-122.946;2022-10-18T03:42:51;101358.48;;;19.68;62.74
55460;BME280;41326;45.302;-122.946;2022-10-18T03:45:20;101358.00;;;19.69;62.75
55460;BME280;41326;45.302;-122.946;2022-10-18T03:47:51;101356.64;;;19.71;62.54
55460;BME280;41326;45.302;-122.946;2022-10-18T03:50:21;101354.86;;;19.75;62.25
55460;BME280;41326;45.302;-122.946;2022-10-18T03:52:51;101353.50;;;19.70;62.45
55460;BME280;41326;45.302;-122.946;2022-10-18T03:55:22;101352.08;;;19.67;62.49
55460;BME280;41326;45.302;-122.946;2022-10-18T03:57:52;101354.53;;;19.70;62.42
55460;BME280;41326;45.302;-122.946;2022-10-18T04:00:22;101355.35;;;19.67;62.51
55460;BME280;41326;45.302;-122.946;2022-10-18T04:02:53;101357.11;;;19.61;62.83
55460;BME280;41326;45.302;-122.946;2022-10-18T04:05:24;101358.54;;;19.59;62.89
55460;BME280;41326;45.302;-122.946;2022-10-18T04:07:53;101359.42;;;19.64;62.60
55460;BME280;41326;45.302;-122.946;2022-10-18T04:10:24;101360.70;;;19.66;62.49
55460;BME280;41326;45.302;-122.946;2022-10-18T04:12:54;101361.12;;;19.60;62.76
55460;BME280;41326;45.302;-122.946;2022-10-18T04:15:25;101365.12;;;19.61;62.67
55460;BME280;41326;45.302;-122.946;2022-10-18T04:17:55;101365.34;;;19.55;63.01
55460;BME280;41326;45.302;-122.946;2022-10-18T04:20:25;101365.58;;;19.55;62.99
55460;BME280;41326;45.302;-122.946;2022-10-18T04:22:56;101371.36;;;19.55;63.01
55460;BME280;41326;45.302;-122.946;2022-10-18T04:25:27;101375.28;;;19.56;63.01
55460;BME280;41326;45.302;-122.946;2022-10-18T04:27:57;101380.79;;;19.61;62.76
55460;BME280;41326;45.302;-122.946;2022-10-18T04:30:27;101383.41;;;19.67;62.49
55460;BME280;41326;45.302;-122.946;2022-10-18T04:32:58;101386.26;;;19.67;62.55
55460;BME280;41326;45.302;-122.946;2022-10-18T04:35:28;101389.12;;;19.61;62.84
55460;BME280;41326;45.302;-122.946;2022-10-18T04:37:59;101388.29;;;19.60;62.88
55460;BME280;41326;45.302;-122.946;2022-10-18T04:40:29;101387.44;;;19.62;62.78
55460;BME280;41326;45.302;-122.946;2022-10-18T04:43:00;101388.26;;;19.61;62.82
55460;BME280;41326;45.302;-122.946;2022-10-18T04:45:30;101389.66;;;19.56;63.03
55460;BME280;41326;45.302;-122.946;2022-10-18T04:48:01;101391.89;;;19.62;62.69
55460;BME280;41326;45.302;-122.946;2022-10-18T04:50:31;101392.07;;;19.63;62.56
55460;BME280;41326;45.302;-122.946;2022-10-18T04:53:01;101391.42;;;19.57;62.89
55460;BME280;41326;45.302;-122.946;2022-10-18T04:55:32;101393.73;;;19.54;63.00
55460;BME280;41326;45.302;-122.946;2022-10-18T04:58:03;101390.23;;;19.51;63.06
55460;BME280;41326;45.302;-122.946;2022-10-18T05:00:33;101394.43;;;19.52;63.01
55460;BME280;41326;45.302;-122.946;2022-10-18T05:03:03;101396.91;;;19.52;62.99
55460;BME280;41326;45.302;-122.946;2022-10-18T05:05:33;101399.94;;;19.54;62.90
55460;BME280;41326;45.302;-122.946;2022-10-18T05:08:03;101402.31;;;19.57;62.69
55460;BME280;41326;45.302;-122.946;2022-10-18T05:10:34;101405.31;;;19.58;62.57
55460;BME280;41326;45.302;-122.946;2022-10-18T05:13:05;101404.18;;;19.58;62.68
55460;BME280;41326;45.302;-122.946;2022-10-18T05:15:35;101403.70;;;19.55;62.72
55460;BME280;41326;45.302;-122.946;2022-10-18T05:18:06;101405.00;;;19.50;62.86
55460;BME280;41326;45.302;-122.946;2022-10-18T05:20:36;101405.59;;;19.47;62.93
55460;BME280;41326;45.302;-122.946;2022-10-18T05:23:06;101406.81;;;19.47;62.89
55460;BME280;41326;45.302;-122.946;2022-10-18T05:25:37;101412.12;;;19.43;63.03
55460;BME280;41326;45.302;-122.946;2022-10-18T05:28:07;101418.48;;;19.47;62.82
55460;BME280;41326;45.302;-122.946;2022-10-18T05:30:37;101419.73;;;19.49;62.66
55460;BME280;41326;45.302;-122.946;2022-10-18T05:33:08;101422.41;;;19.41;62.95
55460;BME280;41326;45.302;-122.946;2022-10-18T05:35:39;101426.05;;;19.38;63.08
55460;BME280;41326;45.302;-122.946;2022-10-18T05:38:09;101427.99;;;19.46;62.74
55460;BME280;41326;45.302;-122.946;2022-10-18T05:40:42;101432.46;;;19.47;62.70
55460;BME280;41326;45.302;-122.946;2022-10-18T05:43:10;101431.54;;;19.44;62.73
55460;BME280;41326;45.302;-122.946;2022-10-18T05:48:11;101431.03;;;19.47;62.52
55460;BME280;41326;45.302;-122.946;2022-10-18T05:50:41;101431.95;;;19.50;62.32
55460;BME280;41326;45.302;-122.946;2022-10-18T05:53:12;101434.43;;;19.51;62.35
55460;BME280;41326;45.302;-122.946;2022-10-18T05:55:42;101438.26;;;19.48;62.43
55460;BME280;41326;45.302;-122.946;2022-10-18T05:58:12;101441.10;;;19.49;62.34
55460;BME280;41326;45.302;-122.946;2022-10-18T06:00:43;101439.73;;;19.45;62.46
55460;BME280;41326;45.302;-122.946;2022-10-18T06:03:13;101437.93;;;19.44;62.46
55460;BME280;41326;45.302;-122.946;2022-10-18T06:05:44;101434.63;;;19.43;62.44
55460;BME280;41326;45.302;-122.946;2022-10-18T06:08:14;101431.14;;;19.45;62.23
55460;BME280;41326;45.302;-122.946;2022-10-18T06:10:45;101430.78;;;19.47;62.08
55460;BME280;41326;45.302;-122.946;2022-10-18T06:13:16;101431.44;;;19.45;62.11
55460;BME280;41326;45.302;-122.946;2022-10-18T06:15:46;101430.88;;;19.40;62.29
55460;BME280;41326;45.302;-122.946;2022-10-18T06:18:16;101432.24;;;19.38;62.35
55460;BME280;41326;45.302;-122.946;2022-10-18T06:20:47;101435.14;;;19.36;62.39
55460;BME280;41326;45.302;-122.946;2022-10-18T06:23:17;101441.08;;;19.34;62.38
55460;BME280;41326;45.302;-122.946;2022-10-18T06:25:48;101442.76;;;19.32;62.45
55460;BME280;41326;45.302;-122.946;2022-10-18T06:28:18;101445.76;;;19.39;62.08
55460;BME280;41326;45.302;-122.946;2022-10-18T06:30:48;101444.47;;;19.40;61.93
55460;BME280;41326;45.302;-122.946;2022-10-18T06:33:18;101442.45;;;19.33;62.15
55460;BME280;41326;45.302;-122.946;2022-10-18T06:35:55;101441.97;;;19.29;62.29
55460;BME280;41326;45.302;-122.946;2022-10-18T06:38:20;101439.79;;;19.27;62.30
55460;BME280;41326;45.302;-122.946;2022-10-18T06:40:52;101441.53;;;19.28;62.23
55460;BME280;41326;45.302;-122.946;2022-10-18T06:43:20;101439.34;;;19.24;62.30
55460;BME280;41326;45.302;-122.946;2022-10-18T06:45:50;101439.11;;;19.22;62.35
55460;BME280;41326;45.302;-122.946;2022-10-18T06:48:21;101442.46;;;19.27;62.08
55460;BME280;41326;45.302;-122.946;2022-10-18T06:50:56;101441.79;;;19.28;61.94
55460;BME280;41326;45.302;-122.946;2022-10-18T06:53:22;101442.57;;;19.28;61.93
55460;BME280;41326;45.302;-122.946;2022-10-18T06:55:52;101444.15;;;19.25;62.02
55460;BME280;41326;45.302;-122.946;2022-10-18T06:58:22;101445.64;;;19.26;61.93
55460;BME280;41326;45.302;-122.946;2022-10-18T07:00:52;101443.47;;;19.24;61.99
55460;BME280;41326;45.302;-122.946;2022-10-18T07:03:23;101438.88;;;19.17;62.11
55460;BME280;41326;45.302;-122.946;2022-10-18T07:05:56;101431.54;;;19.19;62.06
55460;BME280;41326;45.302;-122.946;2022-10-18T07:08:23;101425.88;;;19.25;61.74
55460;BME280;41326;45.302;-122.946;2022-10-18T07:10:57;101425.47;;;19.23;61.71
55460;BME280;41326;45.302;-122.946;2022-10-18T07:13:24;101428.13;;;19.20;61.83
55460;BME280;41326;45.302;-122.946;2022-10-18T07:16:00;101426.00;;;19.17;61.85
55460;BME280;41326;45.302;-122.946;2022-10-18T07:18:24;101427.04;;;19.14;61.94
55460;BME280;41326;45.302;-122.946;2022-10-18T07:20:55;101427.99;;;19.16;61.82
55460;BME280;41326;45.302;-122.946;2022-10-18T07:23:25;101432.33;;;19.20;61.65
55460;BME280;41326;45.302;-122.946;2022-10-18T07:25:56;101433.21;;;19.21;61.56
55460;BME280;41326;45.302;-122.946;2022-10-18T07:28:26;101432.06;;;19.23;61.40
55460;BME280;41326;45.302;-122.946;2022-10-18T07:30:56;101431.88;;;19.21;61.40
55460;BME280;41326;45.302;-122.946;2022-10-18T07:33:28;101434.53;;;19.18;61.48
55460;BME280;41326;45.302;-122.946;2022-10-18T07:35:59;101434.68;;;19.15;61.56
55460;BME280;41326;45.302;-122.946;2022-10-18T07:38:28;101433.95;;;19.14;61.53
55460;BME280;41326;45.302;-122.946;2022-10-18T07:41:01;101431.05;;;19.10;61.66
55460;BME280;41326;45.302;-122.946;2022-10-18T07:43:29;101428.77;;;19.07;61.69
55460;BME280;41326;45.302;-122.946;2022-10-18T07:46:00;101429.52;;;19.09;61.60
55460;BME280;41326;45.302;-122.946;2022-10-18T07:48:29;101431.47;;;19.07;61.59
55460;BME280;41326;45.302;-122.946;2022-10-18T07:50:59;101435.61;;;19.09;61.45
55460;BME280;41326;45.302;-122.946;2022-10-18T07:53:30;101434.57;;;19.04;61.61
55460;BME280;41326;45.302;-122.946;2022-10-18T07:56:03;101432.63;;;19.06;61.54
55460;BME280;41326;45.302;-122.946;2022-10-18T07:58:31;101433.37;;;19.07;61.43
55460;BME280;41326;45.302;-122.946;2022-10-18T08:01:01;101436.00;;;19.08;61.36
55460;BME280;41326;45.302;-122.946;2022-10-18T08:03:31;101437.57;;;19.07;61.32
55460;BME280;41326;45.302;-122.946;2022-10-18T08:06:03;101437.60;;;19.06;61.28
55460;BME280;41326;45.302;-122.946;2022-10-18T08:08:32;101439.90;;;19.09;61.08
55460;BME280;41326;45.302;-122.946;2022-10-18T08:11:08;101443.99;;;19.09;61.05
55460;BME280;41326;45.302;-122.946;2022-10-18T08:13:32;101445.95;;;19.07;61.11
55460;BME280;41326;45.302;-122.946;2022-10-18T08:16:05;101452.53;;;19.02;61.24
55460;BME280;41326;45.302;-122.946;2022-10-18T08:18:33;101455.49;;;18.99;61.26
55460;BME280;41326;45.302;-122.946;2022-10-18T08:21:05;101455.46;;;19.00;61.18
55460;BME280;41326;45.302;-122.946;2022-10-18T08:23:34;101453.55;;;19.00;61.15
55460;BME280;41326;45.302;-122.946;2022-10-18T08:26:07;101451.64;;;18.95;61.30
55460;BME280;41326;45.302;-122.946;2022-10-18T08:28:34;101449.98;;;18.94;61.24
55460;BME280;41326;45.302;-122.946;2022-10-18T08:31:08;101448.94;;;18.93;61.27
55460;BME280;41326;45.302;-122.946;2022-10-18T08:33:34;101448.79;;;18.87;61.44
55460;BME280;41326;45.302;-122.946;2022-10-18T08:36:07;101455.27;;;18.87;61.45
55460;BME280;41326;45.302;-122.946;2022-10-18T08:38:37;101462.75;;;18.86;61.47
55460;BME280;41326;45.302;-122.946;2022-10-18T08:43:40;101468.99;;;18.83;61.53
55460;BME280;41326;45.302;-122.946;2022-10-18T08:46:06;101470.48;;;18.83;61.52
55460;BME280;41326;45.302;-122.946;2022-10-18T08:48:41;101470.24;;;18.86;61.33
55460;BME280;41326;45.302;-122.946;2022-10-18T08:51:11;101464.69;;;18.83;61.39
55460;BME280;41326;45.302;-122.946;2022-10-18T08:53:44;101464.32;;;18.82;61.40
55460;BME280;41326;45.302;-122.946;2022-10-18T08:56:12;101463.44;;;18.82;61.38
55460;BME280;41326;45.302;-122.946;2022-10-18T08:58:38;101465.22;;;18.83;61.30
55460;BME280;41326;45.302;-122.946;2022-10-18T09:01:19;101465.59;;;18.84;61.20
55460;BME280;41326;45.302;-122.946;2022-10-18T09:03:54;101466.88;;;18.84;61.15
55460;BME280;41326;45.302;-122.946;2022-10-18T09:06:16;101467.23;;;18.83;61.14
55460;BME280;41326;45.302;-122.946;2022-10-18T09:08:49;101466.18;;;18.86;60.98
55460;BME280;41326;45.302;-122.946;2022-10-18T09:11:19;101463.61;;;18.84;60.98
55460;BME280;41326;45.302;-122.946;2022-10-18T09:13:54;101464.66;;;18.81;61.05
55460;BME280;41326;45.302;-122.946;2022-10-18T09:16:13;101463.35;;;18.82;60.98
55460;BME280;41326;45.302;-122.946;2022-10-18T09:18:50;101458.82;;;18.83;60.92
55460;BME280;41326;45.302;-122.946;2022-10-18T09:21:18;101457.79;;;18.81;60.92
55460;BME280;41326;45.302;-122.946;2022-10-18T09:23:47;101458.13;;;18.78;60.98
55460;BME280;41326;45.302;-122.946;2022-10-18T09:26:16;101457.64;;;18.78;60.93
55460;BME280;41326;45.302;-122.946;2022-10-18T09:28:53;101459.56;;;18.81;60.75
55460;BME280;41326;45.302;-122.946;2022-10-18T09:31:17;101458.56;;;18.80;60.77
55460;BME280;41326;45.302;-122.946;2022-10-18T09:33:48;101456.88;;;18.76;60.86
55460;BME280;41326;45.302;-122.946;2022-10-18T09:36:16;101455.32;;;18.74;60.82
55460;BME280;41326;45.302;-122.946;2022-10-18T09:38:49;101458.19;;;18.72;60.86
55460;BME280;41326;45.302;-122.946;2022-10-18T09:41:19;101455.74;;;18.70;60.89
55460;BME280;41326;45.302;-122.946;2022-10-18T09:43:52;101456.48;;;18.69;60.89
55460;BME280;41326;45.302;-122.946;2022-10-18T09:46:16;101458.97;;;18.68;60.85
55460;BME280;41326;45.302;-122.946;2022-10-18T09:48:51;101458.43;;;18.72;60.63
55460;BME280;41326;45.302;-122.946;2022-10-18T09:51:19;101458.35;;;18.69;60.72
55460;BME280;41326;45.302;-122.946;2022-10-18T09:53:53;101453.02;;;18.71;60.60
55460;BME280;41326;45.302;-122.946;2022-10-18T09:56:21;101449.66;;;18.69;60.64
55460;BME280;41326;45.302;-122.946;2022-10-18T09:58:49;101455.62;;;18.68;60.62
55460;BME280;41326;45.302;-122.946;2022-10-18T10:01:21;101454.73;;;18.70;60.51
55460;BME280;41326;45.302;-122.946;2022-10-18T10:03:49;101452.75;;;18.66;60.58
55460;BME280;41326;45.302;-122.946;2022-10-18T10:06:24;101450.58;;;18.71;60.38
55460;BME280;41326;45.302;-122.946;2022-10-18T10:08:54;101449.34;;;18.72;60.30
55460;BME280;41326;45.302;-122.946;2022-10-18T10:11:26;101451.08;;;18.69;60.33
55460;BME280;41326;45.302;-122.946;2022-10-18T10:13:56;101451.18;;;18.68;60.32
55460;BME280;41326;45.302;-122.946;2022-10-18T10:16:21;101455.61;;;18.66;60.34
55460;BME280;41326;45.302;-122.946;2022-10-18T10:18:56;101456.93;;;18.65;60.34
55460;BME280;41326;45.302;-122.946;2022-10-18T10:21:22;101454.78;;;18.66;60.26
55460;BME280;41326;45.302;-122.946;2022-10-18T10:23:56;101447.93;;;18.62;60.36
55460;BME280;41326;45.302;-122.946;2022-10-18T10:26:28;101442.26;;;18.64;60.25
55460;BME280;41326;45.302;-122.946;2022-10-18T10:28:53;101439.54;;;18.64;60.20
55460;BME280;41326;45.302;-122.946;2022-10-18T10:31:29;101438.73;;;18.61;60.21
55460;BME280;41326;45.302;-122.946;2022-10-18T10:33:59;101443.68;;;18.58;60.25
55460;BME280;41326;45.302;-122.946;2022-10-18T10:36:25;101448.60;;;18.58;60.21
55460;BME280;41326;45.302;-122.946;2022-10-18T10:39:03;101457.49;;;18.53;60.32
55460;BME280;41326;45.302;-122.946;2022-10-18T10:41:26;101462.29;;;18.54;60.27
55460;BME280;41326;45.302;-122.946;2022-10-18T10:43:55;101465.08;;;18.52;60.25
55460;BME280;41326;45.302;-122.946;2022-10-18T10:46:25;101465.96;;;18.56;60.07
55460;BME280;41326;45.302;-122.946;2022-10-18T10:48:57;101468.96;;;18.59;59.92
55460;BME280;41326;45.302;-122.946;2022-10-18T10:51:30;101471.51;;;18.57;59.92
55460;BME280;41326;45.302;-122.946;2022-10-18T10:54:01;101477.15;;;18.53;60.03
55460;BME280;41326;45.302;-122.946;2022-10-18T10:56:28;101479.69;;;18.53;60.01
55460;BME280;41326;45.302;-122.946;2022-10-18T10:58:59;101485.01;;;18.51;60.05
55460;BME280;41326;45.302;-122.946;2022-10-18T11:01:29;101485.19;;;18.48;60.16
55460;BME280;41326;45.302;-122.946;2022-10-18T11:03:58;101484.90;;;18.49;60.11
55460;BME280;41326;45.302;-122.946;2022-10-18T11:06:36;101486.49;;;18.46;60.18
55460;BME280;41326;45.302;-122.946;2022-10-18T11:08:58;101485.46;;;18.48;60.04
55460;BME280;41326;45.302;-122.946;2022-10-18T11:12:38;101487.96;;;18.44;60.17
55460;BME280;41326;45.302;-122.946;2022-10-18T11:15:17;101493.06;;;18.42;60.23
55460;BME280;41326;45.302;-122.946;2022-10-18T11:17:41;101495.13;;;18.37;60.34
55460;BME280;41326;45.302;-122.946;2022-10-18T11:20:20;101497.22;;;18.37;60.32
55460;BME280;41326;45.302;-122.946;2022-10-18T11:22:48;101495.49;;;18.38;60.25
55460;BME280;41326;45.302;-122.946;2022-10-18T11:25:17;101496.62;;;18.38;60.19
55460;BME280;41326;45.302;-122.946;2022-10-18T11:27:47;101497.22;;;18.44;59.91
55460;BME280;41326;45.302;-122.946;2022-10-18T11:30:29;101498.31;;;18.44;59.84
55460;BME280;41326;45.302;-122.946;2022-10-18T11:32:48;101499.41;;;18.41;59.91
55460;BME280;41326;45.302;-122.946;2022-10-18T11:35:28;101501.49;;;18.39;59.94
55460;BME280;41326;45.302;-122.946;2022-10-18T11:37:55;101505.35;;;18.39;59.89
55460;BME280;41326;45.302;-122.946;2022-10-18T11:40:29;101513.03;;;18.35;59.95
55460;BME280;41326;45.302;-122.946;2022-10-18T11:42:53;101515.81;;;18.34;59.94
55460;BME280;41326;45.302;-122.946;2022-10-18T11:45:26;101515.60;;;18.32;59.95
55460;BME280;41326;45.302;-122.946;2022-10-18T11:47:53;101514.79;;;18.37;59.76
55460;BME280;41326;45.302;-122.946;2022-10-18T11:50:24;101513.88;;;18.40;59.61
55460;BME280;41326;45.302;-122.946;2022-10-18T11:52:55;101512.91;;;18.35;59.72
55460;BME280;41326;45.302;-122.946;2022-10-18T11:55:32;101514.62;;;18.34;59.71
55460;BME280;41326;45.302;-122.946;2022-10-18T11:57:55;101515.65;;;18.30;59.81
55460;BME280;41326;45.302;-122.946;2022-10-18T12:00:27;101511.58;;;18.28;59.81
55460;BME280;41326;45.302;-122.946;2022-10-18T12:03:02;101508.69;;;18.26;59.82
55460;BME280;41326;45.302;-122.946;2022-10-18T12:05:19;101506.07;;;18.28;59.74
55460;BME280;41326;45.302;-122.946;2022-10-18T12:07:54;101502.19;;;18.31;59.58
55460;BME280;41326;45.302;-122.946;2022-10-18T12:10:22;101499.29;;;18.30;59.58
55460;BME280;41326;45.302;-122.946;2022-10-18T12:12:55;101500.01;;;18.29;59.54
55460;BME280;41326;45.302;-122.946;2022-10-18T12:15:24;101501.03;;;18.25;59.61
55460;BME280;41326;45.302;-122.946;2022-10-18T12:17:53;101501.18;;;18.22;59.68
55460;BME280;41326;45.302;-122.946;2022-10-18T12:20:26;101501.94;;;18.21;59.67
55460;BME280;41326;45.302;-122.946;2022-10-18T12:22:55;101506.57;;;18.20;59.65
55460;BME280;41326;45.302;-122.946;2022-10-18T12:25:22;101515.02;;;18.18;59.74
55460;BME280;41326;45.302;-122.946;2022-10-18T12:27:56;101514.16;;;18.22;59.51
55460;BME280;41326;45.302;-122.946;2022-10-18T12:30:28;101511.59;;;18.24;59.40
55460;BME280;41326;45.302;-122.946;2022-10-18T12:32:53;101515.15;;;18.24;59.36
55460;BME280;41326;45.302;-122.946;2022-10-18T12:35:24;101517.04;;;18.22;59.37
55460;BME280;41326;45.302;-122.946;2022-10-18T12:38:06;101518.17;;;18.17;59.50
55460;BME280;41326;45.302;-122.946;2022-10-18T12:40:30;101521.02;;;18.15;59.52
55460;BME280;41326;45.302;-122.946;2022-10-18T12:42:54;101526.86;;;18.11;59.59
55460;BME280;41326;45.302;-122.946;2022-10-18T12:45:28;101526.96;;;18.10;59.62